createdAt,value
2019-05-25T00:01:45.213Z,18.20
2019-05-25T00:04:13.661Z,18.20
2019-05-25T00:06:42.090Z,18.20
2019-05-25T00:09:10.525Z,18.10
2019-05-25T00:11:38.949Z,18.10
2019-05-25T00:14:07.392Z,18.10
2019-05-25T00:16:35.888Z,18.10
2019-05-25T00:19:04.428Z,18.00
2019-05-25T00:21:32.870Z,18.00
2019-05-25T00:24:11.720Z,18.00
2019-05-25T00:26:31.503Z,18.00
2019-05-25T00:29:00.021Z,17.90
2019-05-25T00:31:28.454Z,17.90
2019-05-25T00:33:56.933Z,17.80
2019-05-25T00:36:25.343Z,17.80
2019-05-25T00:38:53.796Z,17.80
2019-05-25T00:41:22.223Z,17.80
2019-05-25T00:43:50.659Z,17.70
2019-05-25T00:46:19.174Z,17.70
2019-05-25T00:48:47.603Z,17.70
2019-05-25T00:51:16.113Z,17.70
2019-05-25T00:53:44.532Z,17.70
2019-05-25T00:56:13.071Z,17.60
2019-05-25T00:58:41.501Z,17.60
2019-05-25T01:01:10.045Z,17.50
2019-05-25T01:03:38.575Z,17.50
2019-05-25T01:06:07.062Z,17.50
2019-05-25T01:08:35.517Z,17.50
2019-05-25T01:11:03.944Z,17.50
2019-05-25T01:13:32.426Z,17.50
2019-05-25T01:16:00.938Z,17.50
2019-05-25T01:18:29.364Z,17.50
2019-05-25T01:20:57.804Z,17.50
2019-05-25T01:23:26.289Z,17.40
2019-05-25T01:25:54.881Z,17.40
2019-05-25T01:28:23.295Z,17.40
2019-05-25T01:30:51.741Z,17.40
2019-05-25T01:33:20.255Z,17.30
2019-05-25T01:35:48.705Z,17.30
2019-05-25T01:38:17.119Z,17.30
2019-05-25T01:40:45.568Z,17.30
2019-05-25T01:43:13.993Z,17.30
2019-05-25T01:45:42.429Z,17.30
2019-05-25T01:48:10.851Z,17.30
2019-05-25T01:50:39.285Z,17.30
2019-05-25T01:53:07.715Z,17.30
2019-05-25T01:55:36.163Z,17.30
2019-05-25T01:58:04.595Z,17.30
2019-05-25T02:00:33.099Z,17.20
2019-05-25T02:03:01.569Z,17.20
2019-05-25T02:05:30.115Z,17.20
2019-05-25T02:07:58.542Z,17.20
2019-05-25T02:10:26.965Z,17.20
2019-05-25T02:12:55.417Z,17.20
2019-05-25T02:15:23.917Z,17.10
2019-05-25T02:17:52.360Z,17.20
2019-05-25T02:20:20.772Z,17.10
2019-05-25T02:22:49.225Z,17.10
2019-05-25T02:25:18.907Z,17.10
2019-05-25T02:27:47.603Z,17.00
2019-05-25T02:30:17.596Z,17.00
2019-05-25T02:32:46.110Z,17.00
2019-05-25T02:35:23.292Z,17.00
2019-05-25T02:37:51.737Z,17.00
2019-05-25T02:40:20.391Z,17.00
2019-05-25T02:42:48.831Z,16.90
2019-05-25T02:45:17.425Z,16.90
2019-05-25T02:47:45.827Z,16.90
2019-05-25T02:50:15.108Z,17.00
2019-05-25T02:52:43.541Z,16.90
2019-05-25T02:55:12.828Z,16.90
2019-05-25T02:57:41.249Z,16.90
2019-05-25T03:00:10.024Z,16.90
2019-05-25T03:02:38.582Z,16.90
2019-05-25T03:05:08.057Z,16.90
2019-05-25T03:07:36.547Z,16.80
2019-05-25T03:10:06.537Z,16.90
2019-05-25T03:12:35.292Z,16.80
2019-05-25T03:15:07.004Z,16.80
2019-05-25T03:17:35.672Z,16.80
2019-05-25T03:20:06.059Z,16.80
2019-05-25T03:22:34.466Z,16.80
2019-05-25T03:25:07.500Z,16.80
2019-05-25T03:27:36.380Z,16.80
2019-05-25T03:30:08.317Z,16.70
2019-05-25T03:32:36.801Z,16.70
2019-05-25T03:35:08.733Z,16.70
2019-05-25T03:37:37.233Z,16.70
2019-05-25T03:40:09.044Z,16.70
2019-05-25T03:42:37.527Z,16.70
2019-05-25T03:45:07.414Z,16.70
2019-05-25T03:47:35.954Z,16.60
2019-05-25T03:50:06.232Z,16.60
2019-05-25T03:52:34.654Z,16.60
2019-05-25T03:55:03.640Z,16.60
2019-05-25T03:57:32.063Z,16.60
2019-05-25T04:00:00.571Z,16.60
2019-05-25T04:02:29.149Z,16.60
2019-05-25T04:04:57.625Z,16.60
2019-05-25T04:07:26.037Z,16.60
2019-05-25T04:09:54.530Z,16.60
2019-05-25T04:12:22.971Z,16.60
2019-05-25T04:14:51.530Z,16.60
2019-05-25T04:17:19.992Z,16.60
2019-05-25T04:19:48.474Z,16.60
2019-05-25T04:22:16.984Z,16.60
2019-05-25T04:24:45.433Z,16.60
2019-05-25T04:27:13.875Z,16.60
2019-05-25T04:29:42.274Z,16.60
2019-05-25T04:32:10.734Z,16.60
2019-05-25T04:34:39.151Z,16.60
2019-05-25T04:37:07.592Z,16.60
2019-05-25T04:39:36.009Z,16.60
2019-05-25T04:42:04.714Z,16.60
2019-05-25T04:44:33.121Z,16.70
2019-05-25T04:47:01.558Z,16.70
2019-05-25T04:49:29.982Z,16.70
2019-05-25T04:51:58.424Z,16.70
2019-05-25T04:54:26.829Z,16.70
2019-05-25T04:56:55.285Z,16.70
2019-05-25T04:59:23.856Z,16.70
2019-05-25T05:01:52.298Z,16.80
2019-05-25T05:04:20.719Z,16.70
2019-05-25T05:06:49.255Z,16.80
2019-05-25T05:09:17.820Z,16.80
2019-05-25T05:11:46.255Z,16.80
2019-05-25T05:14:14.685Z,16.80
2019-05-25T05:16:43.119Z,16.80
2019-05-25T05:19:11.564Z,16.90
2019-05-25T05:21:39.973Z,16.80
2019-05-25T05:24:08.409Z,16.80
2019-05-25T05:26:36.853Z,16.80
2019-05-25T05:29:05.865Z,16.80
2019-05-25T05:31:34.369Z,16.90
2019-05-25T05:34:02.801Z,16.90
2019-05-25T05:36:31.951Z,16.90
2019-05-25T05:39:00.711Z,16.90
2019-05-25T05:41:31.363Z,17.00
2019-05-25T05:44:01.034Z,17.00
2019-05-25T05:46:30.970Z,17.00
2019-05-25T05:49:00.662Z,17.00
2019-05-25T05:51:31.502Z,17.00
2019-05-25T05:54:02.788Z,17.00
2019-05-25T05:56:31.575Z,17.10
2019-05-25T05:59:00.501Z,17.10
2019-05-25T06:01:28.989Z,17.10
2019-05-25T06:03:57.503Z,17.10
2019-05-25T06:06:26.189Z,17.10
2019-05-25T06:08:54.644Z,17.10
2019-05-25T06:11:23.072Z,17.10
2019-05-25T06:13:51.569Z,17.10
2019-05-25T06:16:20.009Z,17.10
2019-05-25T06:18:48.454Z,17.10
2019-05-25T06:21:16.957Z,17.20
2019-05-25T06:23:45.382Z,17.20
2019-05-25T06:26:13.829Z,17.20
2019-05-25T06:28:42.352Z,17.30
2019-05-25T06:31:10.875Z,17.30
2019-05-25T06:33:39.284Z,17.40
2019-05-25T06:36:07.766Z,17.40
2019-05-25T06:38:36.194Z,17.40
2019-05-25T06:41:08.323Z,17.40
2019-05-25T06:43:34.852Z,17.40
2019-05-25T06:46:03.565Z,17.40
2019-05-25T06:48:32.058Z,17.50
2019-05-25T06:51:00.493Z,17.60
2019-05-25T06:53:28.992Z,17.60
2019-05-25T06:55:57.428Z,17.70
2019-05-25T06:58:25.860Z,17.80
2019-05-25T07:00:54.370Z,17.90
2019-05-25T07:03:22.792Z,18.00
2019-05-25T07:05:51.237Z,18.00
2019-05-25T07:08:19.696Z,18.10
2019-05-25T07:10:48.777Z,18.10
2019-05-25T07:13:17.246Z,18.20
2019-05-25T07:15:46.361Z,18.20
2019-05-25T07:18:14.781Z,18.30
2019-05-25T07:20:43.217Z,18.40
2019-05-25T07:23:11.693Z,18.40
2019-05-25T07:25:40.228Z,18.50
2019-05-25T07:28:09.029Z,18.60
2019-05-25T07:30:37.725Z,18.60
2019-05-25T07:33:06.251Z,18.60
2019-05-25T07:35:34.687Z,18.70
2019-05-25T07:40:27.293Z,18.70
2019-05-25T07:42:55.869Z,18.90
2019-05-25T07:45:24.299Z,18.90
2019-05-25T07:47:52.844Z,19.00
2019-05-25T07:50:21.934Z,19.00
2019-05-25T07:52:50.381Z,19.10
2019-05-25T07:55:18.826Z,19.10
2019-05-25T07:57:47.270Z,19.20
2019-05-25T08:00:16.055Z,19.20
2019-05-25T08:02:44.507Z,19.30
2019-05-25T08:05:13.379Z,19.30
2019-05-25T08:07:41.820Z,19.40
2019-05-25T08:10:10.671Z,19.50
2019-05-25T08:12:39.124Z,19.50
2019-05-25T08:15:08.995Z,19.50
2019-05-25T08:17:37.429Z,19.60
2019-05-25T08:20:07.015Z,19.60
2019-05-25T08:22:35.522Z,19.60
2019-05-25T08:25:06.577Z,19.70
2019-05-25T08:27:35.105Z,19.70
2019-05-25T08:30:07.836Z,19.70
2019-05-25T08:32:36.353Z,19.80
2019-05-25T08:35:09.400Z,19.80
2019-05-25T08:37:37.919Z,19.90
2019-05-25T08:40:07.289Z,19.80
2019-05-25T08:42:35.824Z,19.90
2019-05-25T08:45:06.979Z,19.90
2019-05-25T08:47:35.481Z,20.00
2019-05-25T08:50:05.607Z,20.00
2019-05-25T08:52:34.025Z,20.10
2019-05-25T08:55:02.558Z,20.10
2019-05-25T08:57:31.063Z,20.20
2019-05-25T08:59:59.570Z,20.20
2019-05-25T09:02:28.004Z,20.20
2019-05-25T09:04:56.523Z,20.20
2019-05-25T09:07:24.968Z,20.30
2019-05-25T09:09:53.521Z,20.40
2019-05-25T09:12:22.065Z,20.40
2019-05-25T09:14:50.579Z,20.40
2019-05-25T09:17:19.003Z,20.40
2019-05-25T09:19:47.474Z,20.40
2019-05-25T09:22:15.909Z,20.50
2019-05-25T09:24:53.489Z,20.50
2019-05-25T09:27:21.957Z,20.50
2019-05-25T09:29:50.416Z,20.60
2019-05-25T09:32:18.841Z,20.60
2019-05-25T09:34:47.287Z,20.70
2019-05-25T09:37:15.858Z,20.70
2019-05-25T09:39:44.315Z,20.80
2019-05-25T09:42:12.806Z,20.90
2019-05-25T09:44:41.265Z,20.90
2019-05-25T09:47:09.709Z,20.90
2019-05-25T09:49:38.129Z,21.00
2019-05-25T09:52:06.601Z,21.10
2019-05-25T09:54:35.030Z,21.10
2019-05-25T09:57:03.574Z,21.20
2019-05-25T09:59:32.061Z,21.30
2019-05-25T10:02:00.575Z,21.30
2019-05-25T10:04:29.278Z,21.40
2019-05-25T10:06:57.777Z,21.40
2019-05-25T10:09:26.275Z,21.40
2019-05-25T10:11:54.732Z,21.30
2019-05-25T10:14:23.184Z,21.30
2019-05-25T10:16:51.629Z,21.30
2019-05-25T10:19:20.161Z,21.20
2019-05-25T10:21:48.607Z,21.20
2019-05-25T10:24:17.030Z,21.20
2019-05-25T10:26:45.543Z,21.10
2019-05-25T10:29:13.965Z,21.10
2019-05-25T10:31:42.491Z,21.00
2019-05-25T10:34:11.535Z,21.00
2019-05-25T10:36:39.998Z,20.90
2019-05-25T10:39:08.939Z,20.90
2019-05-25T10:41:38.460Z,20.90
2019-05-25T10:44:06.960Z,20.80
2019-05-25T10:46:35.564Z,20.70
2019-05-25T10:49:04.197Z,20.70
2019-05-25T10:51:32.627Z,20.70
2019-05-25T10:54:01.167Z,20.70
2019-05-25T10:56:29.698Z,20.70
2019-05-25T10:58:58.147Z,20.60
2019-05-25T11:01:26.633Z,20.60
2019-05-25T11:03:55.143Z,20.50
2019-05-25T11:06:23.615Z,20.60
2019-05-25T11:08:52.136Z,20.60
2019-05-25T11:11:20.613Z,20.60
2019-05-25T11:13:49.142Z,20.60
2019-05-25T11:16:17.592Z,20.60
2019-05-25T11:18:46.068Z,20.60
2019-05-25T11:21:14.553Z,20.60
2019-05-25T11:23:42.989Z,20.60
2019-05-25T11:26:11.437Z,20.50
2019-05-25T11:28:39.859Z,20.40
2019-05-25T11:31:08.293Z,20.40
2019-05-25T11:33:36.738Z,20.30
2019-05-25T11:36:05.353Z,20.30
2019-05-25T11:38:33.904Z,20.20
2019-05-25T11:41:02.353Z,20.20
2019-05-25T11:43:30.802Z,20.30
2019-05-25T11:45:59.314Z,20.30
2019-05-25T11:48:27.902Z,20.50
2019-05-25T11:50:56.340Z,20.60
2019-05-25T11:53:24.762Z,20.80
2019-05-25T11:55:53.330Z,20.90
2019-05-25T11:58:21.812Z,21.10
2019-05-25T12:00:51.751Z,21.20
2019-05-25T12:03:20.242Z,21.20
2019-05-25T12:05:48.773Z,21.40
2019-05-25T12:08:17.308Z,21.70
2019-05-25T12:10:45.821Z,22.00
2019-05-25T12:13:14.248Z,22.20
2019-05-25T12:15:42.837Z,22.40
2019-05-25T12:18:11.244Z,22.50
2019-05-25T12:20:39.772Z,22.70
2019-05-25T12:23:08.270Z,22.90
2019-05-25T12:25:37.049Z,23.20
2019-05-25T12:28:05.477Z,23.30
2019-05-25T12:30:40.740Z,23.50
2019-05-25T12:33:04.125Z,23.50
2019-05-25T12:35:32.542Z,23.50
2019-05-25T12:38:01.066Z,23.60
2019-05-25T12:40:29.606Z,23.80
2019-05-25T12:42:58.037Z,24.00
2019-05-25T12:45:26.463Z,24.20
2019-05-25T12:47:54.982Z,24.50
2019-05-25T12:50:23.538Z,24.60
2019-05-25T12:52:51.985Z,24.80
2019-05-25T12:55:20.440Z,25.00
2019-05-25T12:57:51.416Z,25.20
2019-05-25T13:00:19.521Z,25.30
2019-05-25T13:02:47.956Z,25.30
2019-05-25T13:05:16.571Z,25.50
2019-05-25T13:07:45.014Z,25.60
2019-05-25T13:10:13.580Z,25.60
2019-05-25T13:12:42.049Z,25.80
2019-05-25T13:15:10.933Z,25.90
2019-05-25T13:17:39.536Z,25.90
2019-05-25T13:20:08.100Z,26.10
2019-05-25T13:22:36.548Z,26.00
2019-05-25T13:25:08.114Z,25.60
2019-05-25T13:27:36.767Z,25.40
2019-05-25T13:30:09.404Z,25.30
2019-05-25T13:32:37.850Z,25.30
2019-05-25T13:35:08.114Z,25.40
2019-05-25T13:37:36.630Z,25.30
2019-05-25T13:40:06.578Z,25.20
2019-05-25T13:42:35.078Z,25.00
2019-05-25T13:45:05.113Z,24.80
2019-05-25T13:47:33.604Z,24.60
2019-05-25T13:50:02.040Z,24.50
2019-05-25T13:52:30.657Z,24.40
2019-05-25T13:54:59.102Z,24.30
2019-05-25T13:57:27.508Z,24.10
2019-05-25T13:59:55.946Z,23.90
2019-05-25T14:02:24.383Z,23.80
2019-05-25T14:04:52.849Z,23.60
2019-05-25T14:07:21.324Z,23.50
2019-05-25T14:09:49.745Z,23.40
2019-05-25T14:12:18.237Z,23.30
2019-05-25T14:14:46.677Z,23.20
2019-05-25T14:17:15.105Z,23.10
2019-05-25T14:19:43.632Z,23.00
2019-05-25T14:22:12.069Z,22.80
2019-05-25T14:24:40.588Z,22.70
2019-05-25T14:27:09.017Z,22.60
2019-05-25T14:29:37.481Z,22.50
2019-05-25T14:32:05.896Z,22.40
2019-05-25T14:34:34.334Z,22.30
2019-05-25T14:37:02.746Z,22.20
2019-05-25T14:39:31.176Z,22.20
2019-05-25T14:41:59.691Z,22.10
2019-05-25T14:44:28.234Z,22.00
2019-05-25T14:46:56.648Z,21.90
2019-05-25T14:49:25.115Z,21.90
2019-05-25T14:51:53.537Z,21.80
2019-05-25T14:54:21.984Z,21.60
2019-05-25T14:56:50.423Z,21.40
2019-05-25T14:59:18.830Z,21.30
2019-05-25T15:02:01.345Z,21.20
2019-05-25T15:04:17.447Z,21.10
2019-05-25T15:06:45.922Z,21.00
2019-05-25T15:09:14.357Z,20.90
2019-05-25T15:11:42.903Z,20.70
2019-05-25T15:14:11.350Z,20.60
2019-05-25T15:16:40.057Z,20.50
2019-05-25T15:19:08.541Z,20.40
2019-05-25T15:21:37.149Z,20.40
2019-05-25T15:24:05.745Z,20.30
2019-05-25T15:26:34.221Z,20.20
2019-05-25T15:29:02.669Z,20.10
2019-05-25T15:31:31.107Z,20.00
2019-05-25T15:33:59.518Z,19.90
2019-05-25T15:36:27.974Z,19.80
2019-05-25T15:38:56.469Z,19.60
2019-05-25T15:41:25.014Z,19.60
2019-05-25T15:43:53.428Z,19.50
2019-05-25T15:46:21.892Z,19.50
2019-05-25T15:48:50.310Z,19.50
2019-05-25T15:51:18.778Z,19.40
2019-05-25T15:53:47.192Z,19.40
2019-05-25T15:56:15.727Z,19.40
2019-05-25T15:58:44.165Z,19.40
2019-05-25T16:01:12.793Z,19.40
2019-05-25T16:03:41.216Z,19.30
2019-05-25T16:06:09.646Z,19.30
2019-05-25T16:08:38.555Z,19.30
2019-05-25T16:11:07.042Z,19.30
2019-05-25T16:13:35.562Z,19.30
2019-05-25T16:16:04.137Z,19.30
2019-05-25T16:18:32.711Z,19.30
2019-05-25T16:21:01.202Z,19.30
2019-05-25T16:23:29.653Z,19.20
2019-05-25T16:25:58.081Z,19.20
2019-05-25T16:28:26.607Z,19.00
2019-05-25T16:30:55.025Z,18.80
2019-05-25T16:33:23.638Z,18.70
2019-05-25T16:35:52.227Z,18.70
2019-05-25T16:38:20.887Z,18.60
2019-05-25T16:40:49.412Z,18.70
2019-05-25T16:43:17.875Z,18.70
2019-05-25T16:45:46.326Z,18.70
2019-05-25T16:48:14.821Z,18.70
2019-05-25T16:50:43.585Z,18.70
2019-05-25T16:53:12.106Z,18.70
2019-05-25T16:55:42.094Z,18.70
2019-05-25T16:58:10.515Z,18.70
2019-05-25T17:00:39.184Z,18.80
2019-05-25T17:03:07.905Z,18.80
2019-05-25T17:05:47.960Z,18.70
2019-05-25T17:08:16.133Z,18.70
2019-05-25T17:10:44.581Z,18.70
2019-05-25T17:13:13.157Z,18.70
2019-05-25T17:15:41.661Z,18.70
2019-05-25T17:18:10.081Z,18.70
2019-05-25T17:20:38.538Z,18.70
2019-05-25T17:23:06.955Z,18.60
2019-05-25T17:25:35.466Z,18.60
2019-05-25T17:28:04.099Z,18.60
2019-05-25T17:30:41.392Z,18.50
2019-05-25T17:33:09.965Z,18.40
2019-05-25T17:35:38.659Z,18.40
2019-05-25T17:38:07.754Z,18.40
2019-05-25T17:40:36.326Z,18.30
2019-05-25T17:43:05.029Z,18.40
2019-05-25T17:45:33.467Z,18.40
2019-05-25T17:48:01.971Z,18.40
2019-05-25T17:50:30.659Z,18.40
2019-05-25T17:52:59.094Z,18.40
2019-05-25T17:55:27.532Z,18.40
2019-05-25T17:57:55.997Z,18.40
2019-05-25T18:00:36.114Z,18.40
2019-05-25T18:03:05.367Z,18.30
2019-05-25T18:05:33.793Z,18.40
2019-05-25T18:08:02.234Z,18.40
2019-05-25T18:10:30.733Z,18.40
2019-05-25T18:12:59.274Z,18.40
2019-05-25T18:15:27.764Z,18.40
2019-05-25T18:17:56.212Z,18.40
2019-05-25T18:20:24.723Z,18.40
2019-05-25T18:22:53.166Z,18.40
2019-05-25T18:25:22.062Z,18.40
2019-05-25T18:27:50.534Z,18.40
2019-05-25T18:30:19.887Z,18.40
2019-05-25T18:32:48.334Z,18.40
2019-05-25T18:35:16.920Z,18.40
2019-05-25T18:37:45.348Z,18.40
2019-05-25T18:40:14.930Z,18.30
2019-05-25T18:42:43.469Z,18.30
2019-05-25T18:45:12.732Z,18.30
2019-05-25T18:47:41.327Z,18.30
2019-05-25T18:50:14.121Z,18.30
2019-05-25T18:52:42.552Z,18.30
2019-05-25T18:55:11.457Z,18.20
2019-05-25T18:57:40.008Z,18.20
2019-05-25T19:00:09.366Z,18.20
2019-05-25T19:02:37.906Z,18.20
2019-05-25T19:05:09.374Z,18.10
2019-05-25T19:07:37.922Z,18.10
2019-05-25T19:10:08.199Z,18.10
2019-05-25T19:12:36.724Z,18.10
2019-05-25T19:15:09.126Z,18.10
2019-05-25T19:17:37.852Z,18.10
2019-05-25T19:20:07.053Z,18.00
2019-05-25T19:22:35.646Z,18.00
2019-05-25T19:25:05.786Z,18.00
2019-05-25T19:27:34.244Z,18.00
2019-05-25T19:30:02.785Z,18.00
2019-05-25T19:32:31.185Z,17.90
2019-05-25T19:35:00.347Z,17.90
2019-05-25T19:37:28.933Z,17.90
2019-05-25T19:39:57.490Z,17.80
2019-05-25T19:42:26.053Z,17.80
2019-05-25T19:44:54.565Z,17.70
2019-05-25T19:47:23.046Z,17.70
2019-05-25T19:49:51.517Z,17.70
2019-05-25T19:52:19.945Z,17.70
2019-05-25T19:54:48.384Z,17.70
2019-05-25T19:57:16.837Z,17.60
2019-05-25T19:59:45.449Z,17.60
2019-05-25T20:02:13.905Z,17.60
2019-05-25T20:04:42.498Z,17.50
2019-05-25T20:07:10.932Z,17.50
2019-05-25T20:09:39.392Z,17.50
2019-05-25T20:12:07.861Z,17.50
2019-05-25T20:14:36.302Z,17.50
2019-05-25T20:17:04.867Z,17.50
2019-05-25T20:19:33.338Z,17.40
2019-05-25T20:22:01.870Z,17.40
2019-05-25T20:24:30.295Z,17.40
2019-05-25T20:27:01.481Z,17.30
2019-05-25T20:29:28.920Z,17.30
2019-05-25T20:31:57.373Z,17.30
2019-05-25T20:34:25.801Z,17.30
2019-05-25T20:36:54.255Z,17.30
2019-05-25T20:39:22.762Z,17.20
2019-05-25T20:41:51.229Z,17.20
2019-05-25T20:44:19.742Z,17.20
2019-05-25T20:46:48.274Z,17.20
2019-05-25T20:49:16.885Z,17.10
2019-05-25T20:51:45.542Z,17.10
2019-05-25T20:54:14.070Z,17.10
2019-05-25T20:56:42.494Z,17.10
2019-05-25T20:59:10.933Z,17.10
2019-05-25T21:01:39.379Z,17.00
2019-05-25T21:04:07.883Z,17.00
2019-05-25T21:06:36.327Z,17.00
2019-05-25T21:09:07.189Z,17.00
2019-05-25T21:11:35.783Z,16.90
2019-05-25T21:14:05.089Z,16.90
2019-05-25T21:16:33.504Z,16.90
2019-05-25T21:19:03.127Z,16.80
2019-05-25T21:21:31.772Z,16.80
2019-05-25T21:24:00.317Z,16.80
2019-05-25T21:26:29.001Z,16.70
2019-05-25T21:28:57.480Z,16.70
2019-05-25T21:31:30.457Z,16.70
2019-05-25T21:33:58.940Z,16.70
2019-05-25T21:36:27.474Z,16.70
2019-05-25T21:38:56.193Z,16.60
2019-05-25T21:41:24.604Z,16.60
2019-05-25T21:43:53.126Z,16.60
2019-05-25T21:46:21.572Z,16.60
2019-05-25T21:48:50.109Z,16.50
2019-05-25T21:51:18.561Z,16.50
2019-05-25T21:53:47.084Z,16.40
2019-05-25T21:56:15.548Z,16.40
2019-05-25T21:58:43.998Z,16.40
2019-05-25T22:01:12.728Z,16.30
2019-05-25T22:03:41.153Z,16.30
2019-05-25T22:06:23.176Z,16.30
2019-05-25T22:08:39.980Z,16.30
2019-05-25T22:11:08.479Z,16.30
2019-05-25T22:13:36.932Z,16.20
2019-05-25T22:16:05.360Z,16.20
2019-05-25T22:18:33.898Z,16.20
2019-05-25T22:21:02.338Z,16.10
2019-05-25T22:23:30.767Z,16.10
2019-05-25T22:25:59.204Z,16.10
2019-05-25T22:28:41.932Z,16.10
2019-05-25T22:30:57.797Z,16.00
2019-05-25T22:33:26.305Z,15.90
2019-05-25T22:35:54.867Z,15.90
2019-05-25T22:38:23.631Z,15.90
2019-05-25T22:40:52.168Z,15.90
2019-05-25T22:43:20.615Z,15.90
2019-05-25T22:45:49.070Z,15.80
2019-05-25T22:48:17.506Z,15.80
2019-05-25T22:50:46.096Z,15.80
2019-05-25T22:53:14.703Z,15.80
2019-05-25T22:55:43.137Z,15.80
2019-05-25T22:58:11.567Z,15.80
2019-05-25T23:00:40.094Z,15.80
2019-05-25T23:03:08.522Z,15.70
2019-05-25T23:05:36.946Z,15.70
2019-05-25T23:08:05.470Z,15.70
2019-05-25T23:10:33.925Z,15.70
2019-05-25T23:13:02.380Z,15.70
2019-05-25T23:15:30.836Z,15.60
2019-05-25T23:17:59.293Z,15.70
2019-05-25T23:20:27.745Z,15.60
2019-05-25T23:22:56.254Z,15.60
2019-05-25T23:25:24.692Z,15.60
2019-05-25T23:27:53.116Z,15.60
2019-05-25T23:30:21.683Z,15.60
2019-05-25T23:32:50.186Z,15.60
2019-05-25T23:35:18.619Z,15.50
2019-05-25T23:37:47.063Z,15.50
2019-05-25T23:40:15.933Z,15.50
2019-05-25T23:42:44.478Z,15.50
2019-05-25T23:45:13.344Z,15.50
2019-05-25T23:47:41.789Z,15.50
2019-05-25T23:50:10.762Z,15.50
2019-05-25T23:52:39.349Z,15.50
2019-05-25T23:55:08.119Z,15.50
2019-05-25T23:57:36.584Z,15.50
